ADDS METAR Data INFO
IDs: Format: Raw Decoded Include TAF

Data at: 1245 UTC 19 Oct 2017

KDWU 191235Z 00000KT M1/4SM OVC001 07/07 A3029 RMK AO2 SLP303 PWINO FZRANO RVRNO
KDWU 191215Z 00000KT M1/4SM OVC001 07/07 A3029 RMK AO2 SLP303 PWINO FZRANO RVRNO
KDWU 191156Z AUTO VRB04KT 1/4SM -RA FG OVC001 06/06 A3029 RMK AO2 RAE13B48 SLP261 P0000 60000 T00610061 10078 20061 51015 RVRNO
KDWU 191155Z VRB03KT 1/4SM OVC001 06/06 A3029 RMK AO2 SLP303 10080 20060 52014 PWINO FZRANO RVRNO
KDWU 191151Z AUTO VRB05KT 1/4SM -RA FG OVC001 06/06 A3029 RMK AO2 RAE13B48 P0000 RVRNO
KDWU 191148Z AUTO VRB03KT 3/4SM -RA BR OVC001 06/06 A3029 RMK AO2 VIS 1/4V5 RAE13B48 P0000 RVRNO
KDWU 191146Z AUTO VRB04KT 1 1/4SM BR OVC001 06/06 A3029 RMK AO2 VIS 1/4V5 RAE13 P0000
KDWU 191135Z 15003KT 10SM OVC001 06/05 A3029 RMK AO2 SLP303 PWINO FZRANO RVRNO
KDWU 191115Z 14003KT 10SM OVC001 07/06 A3028 RMK AO2 SLP303 PWINO FZRANO RVRNO
KDWU 191113Z AUTO 00000KT 10SM OVC001 07/06 A3028 RMK AO2 RAE13 P0000
KDWU 191105Z AUTO 00000KT 2SM -RA BR OVC001 07/06 A3029 RMK AO2 P0000
KDWU 191102Z AUTO 14003KT 1SM -RA BR OVC001 07/07 A3028 RMK AO2 P0000 RVRNO
KDWU 191056Z AUTO 14003KT 1/2SM -RA FG OVC001 07/07 A3029 RMK AO2 RAB44 SLP257 P0000 T00670067 RVRNO
KDWU 191055Z 00000KT 1/4SM OVC001 07/07 A3029 RMK AO2 SLP303 PWINO FZRANO RVRNO
KDWU 191050Z AUTO 00000KT 1/4SM -RA FG OVC001 07/07 A3029 RMK AO2 RAB44 P0000 RVRNO
KDWU 191045Z AUTO 00000KT 3/4SM -RA BR OVC001 07/06 A3029 RMK AO2 RAB44 P0000 RVRNO
KDWU 191035Z 00000KT 10SM OVC001 06/06 A3028 RMK AO2 SLP303 PWINO FZRANO RVRNO
KDWU 191015Z VRB03KT 7SM OVC001 07/06 A3027 RMK AO2 SLP303 PWINO FZRANO RVRNO
KDWU 190956Z AUTO 14003KT 9SM OVC001 07/07 A3027 RMK AO2 SLP249 T00670067
KDWU 190955Z 00000KT 9SM OVC001 07/07 A3027 RMK AO2 SLP303 PWINO FZRANO RVRNO
KDWU 190915Z 15003KT 10SM OVC001 07/06 A3025 RMK AO2 SLP303 PWINO FZRANO RVRNO
KDWU 190856Z AUTO 00000KT 10SM OVC001 07/06 A3025 RMK AO2 SLP242 T00670061 52002
KDWU 190855Z 00000KT 10SM OVC001 07/06 A3025 RMK AO2 SLP302 52003 PWINO FZRANO RVRNO
KDWU 190835Z 00000KT 10SM OVC001 07/06 A3024 RMK AO2 SLP302 PWINO FZRANO RVRNO
KDWU 190815Z 00000KT 10SM OVC001 07/07 A3024 RMK AO2 SLP302 PWINO FZRANO RVRNO
KDWU 190756Z AUTO 13003KT 10SM OVC001 07/07 A3024 RMK AO2 SLP239 T00720067
KDWU 190755Z 13003KT 10SM OVC001 07/07 A3024 RMK AO2 SLP302 PWINO FZRANO RVRNO
KDWU 190740Z AUTO 14003KT 4SM BR OVC001 08/07 A3025 RMK AO2
KDWU 190735Z 00000KT 3SM OVC001 07/07 A3025 RMK AO2 SLP302 PWINO FZRANO RVRNO
KDWU 190731Z AUTO 00000KT 2SM BR OVC001 07/07 A3025 RMK AO2 VIS 1V5
KDWU 190715Z 00000KT 10SM OVC001 07/06 A3025 RMK AO2 SLP303 PWINO FZRANO RVRNO
KDWU 190656Z AUTO 00000KT 10SM OVC001 07/06 A3025 RMK AO2 SLP244 T00670061
KDWU 190655Z 00000KT 10SM OVC001 07/06 A3025 RMK AO2 SLP303 PWINO FZRANO RVRNO
KDWU 190635Z 00000KT 10SM BKN001 07/06 A3025 RMK AO2 SLP303 PWINO FZRANO RVRNO
KDWU 190615Z 00000KT 10SM BKN001 07/06 A3025 RMK AO2 SLP303 PWINO FZRANO RVRNO
KDWU 190556Z AUTO 00000KT 10SM BKN001 07/07 A3024 RMK AO2 SLP241 T00720067 10133 20072 53002
KDWU 190555Z 00000KT 10SM BKN001 07/07 A3024 RMK AO2 SLP302 10130 20070 54000 PWINO FZRANO RVRNO
KDWU 190549Z AUTO 00000KT 10SM BKN001 07/07 A3024 RMK AO2
KDWU 190535Z 00000KT 10SM FEW001 07/07 A3024 RMK AO2 SLP302 PWINO FZRANO RVRNO
KDWU 190519Z AUTO 00000KT 10SM FEW001 07/07 A3023 RMK AO2
KDWU 190515Z 00000KT 10SM FEW001 07/07 A3023 RMK AO2 SLP302 PWINO FZRANO RVRNO
KDWU 190456Z AUTO 00000KT 10SM CLR 08/07 A3024 RMK AO2 SLP239 T00780067
KDWU 190455Z 00000KT 10SM CLR 08/07 A3024 RMK AO2 SLP302 PWINO FZRANO RVRNO
KDWU 190435Z 00000KT 10SM CLR 08/07 A3024 RMK AO2 SLP302 PWINO FZRANO RVRNO
KDWU 190415Z 00000KT 10SM CLR 08/07 A3024 RMK AO2 SLP302 PWINO FZRANO RVRNO
KDWU 190356Z AUTO 00000KT 10SM CLR 08/07 A3023 RMK AO2 SLP240 T00830072 402220050
KDWU 190355Z 00000KT 10SM CLR 08/07 A3023 RMK AO2 SLP302 PWINO FZRANO RVRNO
KDWU 190335Z 00000KT 10SM CLR 09/08 A3024 RMK AO2 SLP302 PWINO FZRANO RVRNO
KDWU 190315Z 00000KT 10SM CLR 09/08 A3024 RMK AO2 SLP302 PWINO FZRANO RVRNO
KDWU 190256Z AUTO 00000KT 10SM CLR 09/08 A3024 RMK AO2 SLP242 T00940083 58001
KDWU 190255Z 00000KT 10SM CLR 09/08 A3024 RMK AO2 SLP303 54000 PWINO FZRANO RVRNO
KDWU 190235Z 00000KT 10SM CLR 09/09 A3024 RMK AO2 SLP302 PWINO FZRANO RVRNO
KDWU 190215Z 00000KT 10SM CLR 09/09 A3024 RMK AO2 SLP303 PWINO FZRANO RVRNO
KDWU 190156Z AUTO 00000KT 10SM CLR 11/09 A3024 RMK AO2 SLP242 T01060089
KDWU 190155Z 00000KT 10SM CLR 10/09 A3024 RMK AO2 SLP303 PWINO FZRANO RVRNO
KDWU 190135Z 00000KT 10SM CLR 11/09 A3024 RMK AO2 SLP302 PWINO FZRANO RVRNO
KDWU 190115Z 00000KT 10SM CLR 11/11 A3024 RMK AO2 SLP302 PWINO FZRANO RVRNO
KDWU 190056Z AUTO 00000KT 10SM CLR 12/11 A3024 RMK AO2 SLP241 T01170106
KDWU 190055Z 00000KT 10SM CLR 12/11 A3024 RMK AO2 SLP302 PWINO FZRANO RVRNO
KDWU 190035Z 00000KT 10SM CLR 12/11 A3024 RMK AO2 SLP303 PWINO FZRANO RVRNO
KDWU 190015Z 00000KT 10SM CLR 13/11 A3024 RMK AO2 SLP303 PWINO FZRANO RVRNO
KDWU 182356Z AUTO 00000KT 10SM CLR 13/12 A3024 RMK AO2 SLP241 T01330117 10222 20128 55001
KDWU 182355Z 00000KT 10SM CLR 13/11 A3024 RMK AO2 SLP302 10220 20130 402200050 54000 PWINO FZRANO RVRNO
KDWU 182335Z 00000KT 10SM CLR 14/11 A3024 RMK AO2 SLP303 PWINO FZRANO RVRNO
KDWU 182315Z 00000KT 10SM CLR 15/11 A3024 RMK AO2 SLP303 PWINO FZRANO RVRNO
KDWU 182256Z AUTO 00000KT 10SM CLR 16/12 A3024 RMK AO2 SLP241 T01610117
KDWU 182255Z 00000KT 10SM CLR 17/12 A3024 RMK AO2 SLP302 PWINO FZRANO RVRNO
KDWU 182235Z 00000KT 10SM CLR 18/11 A3023 RMK AO2 SLP302 PWINO FZRANO RVRNO
KDWU 182156Z AUTO 26003KT 10SM CLR 21/08 A3023 RMK AO2 SLP238 T02060083
KDWU 182155Z 00000KT 10SM CLR 21/08 A3023 RMK AO2 SLP302 PWINO FZRANO RVRNO
KDWU 182135Z 00000KT 10SM CLR 21/08 A3024 RMK AO2 SLP302 PWINO FZRANO RVRNO
KDWU 182115Z 00000KT 10SM CLR 22/07 A3024 RMK AO2 SLP302 PWINO FZRANO RVRNO
KDWU 182056Z AUTO 22004KT 10SM CLR 22/07 A3024 RMK AO2 SLP241 T02170072 56018
KDWU 182055Z 23006KT 10SM CLR 22/07 A3024 RMK AO2 SLP302 57020 PWINO FZRANO RVRNO
KDWU 182035Z 18004KT 10SM CLR 22/07 A3024 RMK AO2 SLP302 PWINO FZRANO RVRNO
KDWU 181956Z AUTO 00000KT 10SM CLR 22/07 A3025 RMK AO2 SLP243 T02170067
KDWU 181955Z 16004KT 10SM CLR 22/07 A3025 RMK AO2 SLP303 PWINO FZRANO RVRNO
KDWU 181935Z 00000KT 9SM CLR 22/08 A3026 RMK AO2 SLP303 PWINO FZRANO RVRNO
KDWU 181915Z 00000KT 10SM CLR 22/07 A3027 RMK AO2 SLP303 PWINO FZRANO RVRNO
KDWU 181856Z AUTO 01003KT 10SM CLR 21/08 A3027 RMK AO2 SLP250 T02110083
KDWU 181855Z 00000KT 10SM CLR 21/08 A3027 RMK AO2 SLP303 PWINO FZRANO RVRNO
KDWU 181835Z VRB04KT 10SM CLR 21/08 A3028 RMK AO2 SLP303 PWINO FZRANO RVRNO
KDWU 181815Z VRB04KT 10SM CLR 21/08 A3029 RMK AO2 SLP303 PWINO FZRANO RVRNO
KDWU 181756Z AUTO 00000KT 10SM CLR 19/08 A3030 RMK AO2 SLP259 60000 T01940078 10200 20056 58025
KDWU 181755Z 00000KT 10SM CLR 20/08 A3030 RMK AO2 SLP303 10200 20060 57024 PWINO FZRANO RVRNO
KDWU 181735Z 00000KT 10SM CLR 19/09 A3031 RMK AO2 SLP303 PWINO FZRANO RVRNO
KDWU 181715Z 00000KT 10SM CLR 18/09 A3032 RMK AO2 SLP303 PWINO FZRANO RVRNO
KDWU 181656Z AUTO 00000KT 10SM CLR 18/11 A3033 RMK AO2 SLP273 T01780106
KDWU 181655Z 00000KT 10SM CLR 18/11 A3033 RMK AO2 SLP303 PWINO FZRANO RVRNO
KDWU 181615Z 04003KT 10SM CLR 15/10 A3036 RMK AO2 SLP304 PWINO FZRANO RVRNO
KDWU 181556Z AUTO 00000KT 10SM CLR 14/09 A3036 RMK AO2 SLP284 T01390094
KDWU 181535Z 00000KT 10SM CLR 12/09 A3037 RMK AO2 SLP304 PWINO FZRANO RVRNO
KDWU 181515Z 00000KT 10SM CLR 11/08 A3037 RMK AO2 SLP304 PWINO FZRANO RVRNO
KDWU 181456Z AUTO 00000KT 10SM CLR 11/08 A3037 RMK AO2 RAE11 SLP286 P0000 60000 T01060083 50006
KDWU 181455Z 00000KT 10SM CLR 10/08 A3037 RMK AO2 SLP304 52007 PWINO FZRANO RVRNO
KDWU 181442Z AUTO 00000KT 10SM SCT001 09/08 A3037 RMK AO2 RAE11 P0000
KDWU 181435Z 00000KT 10SM BKN001 09/08 A3037 RMK AO2 SLP304 PWINO FZRANO RVRNO
KDWU 181418Z AUTO 00000KT 3SM BR OVC001 08/07 A3037 RMK AO2 RAE11 P0000
KDWU 181415Z 00000KT 1SM OVC001 08/07 A3037 RMK AO2 SLP304 PWINO FZRANO RVRNO
KDWU 181411Z AUTO 00000KT 3/4SM BR OVC001 08/07 A3037 RMK AO2 RAE11 P0000 RVRNO
KDWU 181356Z AUTO 16003KT 1/4SM -RA FG OVC001 07/07 A3037 RMK AO2 SLP287 P0000 T00720072 RVRNO
KDWU 181355Z 15004KT M1/4SM OVC001 07/07 A3037 RMK AO2 SLP304 PWINO FZRANO RVRNO
KDWU 181335Z 00000KT M1/4SM OVC001 07/07 A3037 RMK AO2 SLP304 PWINO FZRANO RVRNO
KDWU 181315Z 11006KT 1/8SM OVC001 07/07 A3037 RMK AO2 SLP304 PWINO FZRANO RVRNO
KDWU 181256Z AUTO VRB06KT M1/4SM -RA FG OVC001 07/07 A3036 RMK AO2 SLP285 P0000 T00670067 RVRNO
KDWU 181255Z VRB05KT 1/8SM OVC001 07/07 A3036 RMK AO2 SLP304 PWINO FZRANO RVRNO
KDWU 181235Z 11007KT 1/8SM OVC001 06/06 A3036 RMK AO2 SLP304 PWINO FZRANO RVRNO
KDWU 181215Z 15003KT 1/8SM OVC001 06/06 A3035 RMK AO2 SLP304 PWINO FZRANO RVRNO
KDWU 181156Z AUTO VRB05KT M1/4SM -RA FG OVC001 06/06 A3035 RMK AO2 SLP280 P0000 60000 7//// T00560056 10067 20050 53008 RVRNO
KDWU 181155Z VRB05KT 1/8SM OVC001 06/06 A3035 RMK AO2 SLP304 10070 20050 52010 PWINO FZRANO RVRNO
KDWU 181135Z 19003KT M1/4SM OVC001 06/05 A3035 RMK AO2 SLP304 PWINO FZRANO RVRNO
KDWU 181127Z AUTO 21003KT 1/4SM -RA FG OVC001 06/05 A3035 RMK AO2 P0000 RVRNO
KDWU 181117Z AUTO 00000KT 3/4SM -RA BR OVC001 05/05 A3035 RMK AO2 P0000 RVRNO
KDWU 181115Z 00000KT 1SM OVC001 05/05 A3035 RMK AO2 SLP304 PWINO FZRANO RVRNO
KDWU 181113Z AUTO 00000KT 1 1/4SM -RA BR OVC001 05/05 A3035 RMK AO2 VIS 3/4V2 P0000
KDWU 181104Z AUTO 20003KT 1SM -RA BR OVC001 05/05 A3035 RMK AO2 VIS 1/2V2 P0000 RVRNO
KDWU 181056Z AUTO 00000KT 1/2SM -RA FG OVC001 06/06 A3034 RMK AO2 SLP275 P0000 T00560056 RVRNO
KDWU 181055Z 00000KT 1/2SM OVC001 06/06 A3034 RMK AO2 SLP304 PWINO FZRANO RVRNO
KDWU 181052Z AUTO 19003KT 1/2SM -RA FG OVC001 06/06 A3034 RMK AO2 P0000 RVRNO
KDWU 181035Z 16003KT 1/4SM OVC001 06/06 A3033 RMK AO2 SLP303 PWINO FZRANO RVRNO
KDWU 181015Z 12007KT 100V180 M1/4SM OVC001 06/06 A3033 RMK AO2 SLP303 PWINO FZRANO RVRNO
KDWU 180956Z AUTO 10007KT 1/4SM -RA FG OVC001 06/06 A3033 RMK AO2 SLP271 P0000 T00610061 RVRNO
KDWU 180955Z 11007KT M1/4SM OVC001 06/06 A3033 RMK AO2 SLP303 PWINO FZRANO RVRNO
KDWU 180935Z 11007KT M1/4SM OVC001 07/06 A3032 RMK AO2 SLP303 PWINO FZRANO RVRNO
KDWU 180915Z 10007KT 1/4SM OVC001 07/07 A3032 RMK AO2 SLP303 PWINO FZRANO RVRNO
KDWU 180904Z AUTO 11006KT 1/4SM -RA FG OVC001 06/06 A3032 RMK AO2 P0000 RVRNO
KDWU 180856Z AUTO VRB06KT 3/4SM -RA BR OVC001 06/06 A3032 RMK AO2 RAB52 SLP266 P0000 60000 T00610061 55000 RVRNO
KDWU 180855Z VRB04KT 1 1/4SM OVC001 06/06 A3032 RMK AO2 SLP303 PWINO FZRANO RVRNO
KDWU 180852Z AUTO VRB04KT 1 3/4SM -RA BR OVC001 06/06 A3032 RMK AO2 RAB52 P0000
KDWU 180835Z VRB06KT 10SM OVC001 06/06 A3031 RMK AO2 SLP303 PWINO FZRANO RVRNO
KDWU 180815Z 15003KT 10SM OVC001 07/06 A3031 RMK AO2 SLP303 PWINO FZRANO RVRNO
KDWU 180756Z AUTO 00000KT 10SM OVC001 07/06 A3031 RMK AO2 SLP265 T00670061
KDWU 180755Z 00000KT 10SM OVC001 07/06 A3031 RMK AO2 SLP303 PWINO FZRANO RVRNO
KDWU 180735Z 14003KT 10SM OVC001 07/06 A3031 RMK AO2 SLP303 PWINO FZRANO RVRNO
KDWU 180715Z VRB05KT 7SM OVC001 07/06 A3032 RMK AO2 SLP303 PWINO FZRANO RVRNO
KDWU 180712Z AUTO 15003KT 3SM BR OVC001 07/06 A3032 RMK AO2
KDWU 180709Z AUTO 15003KT 1 1/4SM BR OVC001 07/06 A3032 RMK AO2 TSNO
KDWU 180659Z AUTO VRB04KT 3/4SM BR OVC001 07/06 A3032 RMK AO2 RVRNO
KDWU 180656Z AUTO 12005KT 1 1/4SM BR OVC001 07/06 A3032 RMK AO2 SLP268 T00670061
KDWU 180655Z 14004KT 1 1/2SM OVC001 07/07 A3032 RMK AO2 SLP303 PWINO FZRANO RVRNO
KDWU 180654Z AUTO 14004KT 1 1/2SM BR OVC001 07/07 A3032 RMK AO2
KDWU 180638Z AUTO 15003KT 9SM OVC001 07/07 A3032 RMK AO2
KDWU 180635Z 00000KT 7SM OVC001 07/07 A3032 RMK AO2 PWINO FZRANO RVRNO
KDWU 180631Z AUTO 00000KT 2 1/2SM BR OVC001 07/07 A3032 RMK AO2
KDWU 180627Z AUTO 00000KT 1SM BR OVC001 07/07 A3032 RMK AO2 RVRNO
KDWU 180624Z AUTO 00000KT 1/2SM FG OVC001 06/06 A3032 RMK AO2 RVRNO
KDWU 180615Z 10007KT 1/4SM BKN001 06/06 A3032 RMK AO2 SLP303 PWINO FZRANO RVRNO
KDWU 180609Z AUTO 11007KT 1/4SM FG BKN001 06/06 A3032 RMK AO2 RVRNO
KDWU 180603Z AUTO 10007KT 3/4SM BR VV001 06/06 A3032 RMK AO2 RVRNO
KDWU 180601Z AUTO 11006KT 1 1/2SM BR SCT001 06/06 A3032 RMK AO2
KDWU 180556Z AUTO 10006KT 10SM FEW001 06/05 A3032 RMK AO2 SLP269 T00560050 10111 20056 53002 TSNO
KDWU 180542Z AUTO 00000KT 10SM SCT001 06/06 A3032 RMK AO2
KDWU 180535Z 00000KT 10SM CLR 06/06 A3032 RMK AO2 SLP303 PWINO FZRANO RVRNO
KDWU 180515Z 00000KT 10SM CLR 06/06 A3031 RMK AO2 SLP303 PWINO FZRANO RVRNO
KDWU 180456Z AUTO 16003KT 10SM CLR 07/06 A3032 RMK AO2 SLP267 T00670056
KDWU 180455Z 00000KT 10SM CLR 07/06 A3031 RMK AO2 SLP303 PWINO FZRANO RVRNO
KDWU 180435Z 00000KT 10SM CLR 07/06 A3031 RMK AO2 SLP303 PWINO FZRANO RVRNO
KDWU 180415Z 00000KT 10SM CLR 07/06 A3031 RMK AO2 SLP303 PWINO FZRANO RVRNO
KDWU 180356Z AUTO 17003KT 10SM CLR 07/06 A3031 RMK AO2 SLP268 T00720061 401890061
KDWU 180355Z 00000KT 10SM CLR 07/06 A3031 RMK AO2 SLP303 PWINO FZRANO RVRNO
KDWU 180335Z 00000KT 10SM CLR 08/07 A3031 RMK AO2 SLP303 PWINO FZRANO RVRNO
KDWU 180315Z 00000KT 10SM CLR 08/07 A3031 RMK AO2 SLP303 PWINO FZRANO RVRNO
KDWU 180256Z AUTO 00000KT 10SM CLR 08/07 A3031 RMK AO2 SLP267 T00830067 53005
KDWU 180255Z 00000KT 10SM CLR 08/07 A3031 RMK AO2 SLP303 52007 PWINO FZRANO RVRNO
KDWU 180235Z 14003KT 10SM CLR 08/07 A3031 RMK AO2 SLP303 PWINO FZRANO RVRNO
KDWU 180215Z 00000KT 10SM CLR 09/08 A3031 RMK AO2 SLP303 PWINO FZRANO RVRNO
KDWU 180156Z AUTO 09008KT 010V140 10SM CLR 09/08 A3031 RMK AO2 SLP264 T00940078
KDWU 180135Z 10007KT 020V140 10SM CLR 09/08 A3030 RMK AO2 SLP303 PWINO FZRANO RVRNO
KDWU 180115Z 00000KT 10SM CLR 09/08 A3030 RMK AO2 SLP303 PWINO FZRANO RVRNO
KDWU 180056Z AUTO 00000KT 10SM CLR 11/09 A3030 RMK AO2 SLP262 T01060089
KDWU 180055Z 00000KT 10SM CLR 11/09 A3030 RMK AO2 SLP303 PWINO FZRANO RVRNO